createdAt,value
2024-03-09T00:04:02.600Z,100747.34
2024-03-09T00:19:05.952Z,100745.45
2024-03-09T00:34:09.483Z,100733.45
2024-03-09T00:49:15.034Z,100722.45
2024-03-09T01:04:18.394Z,100711.10
2024-03-09T01:19:21.726Z,100706.48
2024-03-09T01:34:24.908Z,100701.30
2024-03-09T01:49:30.131Z,100690.67
2024-03-09T02:04:36.238Z,100687.84
2024-03-09T02:19:40.556Z,100674.11
2024-03-09T02:34:44.547Z,100669.73
2024-03-09T02:49:47.730Z,100666.35
2024-03-09T03:04:50.939Z,100666.30
2024-03-09T03:19:54.963Z,100661.66
2024-03-09T03:34:58.309Z,100654.50
2024-03-09T03:50:01.706Z,100642.81
2024-03-09T04:05:05.808Z,100646.48
2024-03-09T04:20:10.869Z,100634.86
2024-03-09T04:35:14.380Z,100631.01
2024-03-09T04:50:21.302Z,100625.36
2024-03-09T05:05:31.902Z,100615.89
2024-03-09T05:20:36.692Z,100616.91
2024-03-09T05:35:40.811Z,100611.23
2024-03-09T05:50:44.064Z,100612.00
2024-03-09T06:05:49.341Z,100621.48
2024-03-09T06:20:52.771Z,100621.23
2024-03-09T06:35:57.692Z,100628.38
2024-03-09T06:51:00.967Z,100629.07
2024-03-09T07:06:05.253Z,100635.39
2024-03-09T07:21:12.165Z,100629.98
2024-03-09T07:36:22.034Z,100627.60
2024-03-09T07:51:29.931Z,100624.95
2024-03-09T08:06:33.781Z,100621.40
2024-03-09T08:21:37.018Z,100619.25
2024-03-09T08:36:40.824Z,100615.77
2024-03-09T08:51:44.519Z,100605.75
2024-03-09T09:06:47.711Z,100588.70
2024-03-09T09:21:50.891Z,100574.09
2024-03-09T09:36:54.981Z,100568.16
2024-03-09T09:52:00.364Z,100566.51
2024-03-09T10:07:09.503Z,100554.92
2024-03-09T10:22:13.523Z,100537.70
2024-03-09T10:37:19.738Z,100530.41
2024-03-09T10:52:27.415Z,100518.80
2024-03-09T11:07:30.940Z,100510.60
2024-03-09T11:22:44.549Z,100494.20
2024-03-09T11:37:51.436Z,100472.63
2024-03-09T11:52:56.423Z,100456.63
2024-03-09T12:08:00.073Z,100442.27
2024-03-09T12:23:03.655Z,100425.41
2024-03-09T12:38:15.470Z,100413.44
2024-03-09T12:53:22.878Z,100401.80
2024-03-09T13:08:28.337Z,100384.11
2024-03-09T13:23:33.515Z,100375.83
2024-03-09T13:38:48.156Z,100353.30
2024-03-09T13:54:19.260Z,100337.30
2024-03-09T14:09:31.936Z,100309.07
2024-03-09T14:24:38.878Z,100299.98
2024-03-09T14:39:46.363Z,100284.84
2024-03-09T14:54:52.744Z,100272.61
2024-03-09T15:09:56.828Z,100263.34
2024-03-09T15:25:10.502Z,100261.50
2024-03-09T15:40:18.079Z,100254.32
2024-03-09T15:55:25.534Z,100254.68
2024-03-09T16:10:31.970Z,100257.10
2024-03-09T16:25:38.898Z,100255.66
2024-03-09T16:40:42.825Z,100256.34
2024-03-09T16:55:46.947Z,100253.98
2024-03-09T17:10:53.651Z,100259.31
2024-03-09T17:25:57.571Z,100260.20
2024-03-09T17:41:01.269Z,100259.44
2024-03-09T17:56:07.753Z,100253.33
2024-03-09T18:11:11.411Z,100249.90
2024-03-09T18:26:16.610Z,100238.67
2024-03-09T18:41:20.148Z,100242.80
2024-03-09T18:56:23.796Z,100252.77
2024-03-09T19:11:29.461Z,100258.70
2024-03-09T19:26:33.429Z,100249.00
2024-03-09T19:41:37.162Z,100259.48
2024-03-09T19:56:40.616Z,100266.36
2024-03-09T20:11:44.160Z,100265.71
2024-03-09T20:26:48.315Z,100263.09
2024-03-09T20:41:55.464Z,100257.54
2024-03-09T20:56:58.973Z,100263.23
2024-03-09T21:12:03.670Z,100257.15
2024-03-09T21:27:07.238Z,100253.63
2024-03-09T21:42:15.959Z,100247.60
2024-03-09T21:57:19.694Z,100237.90
2024-03-09T22:12:23.561Z,100223.45
2024-03-09T22:27:27.427Z,100220.54
2024-03-09T22:42:30.997Z,100222.02
2024-03-09T22:57:35.474Z,100216.34
2024-03-09T23:12:38.739Z,100223.31
2024-03-09T23:27:48.274Z,100220.35
2024-03-09T23:42:51.839Z,100226.22
2024-03-09T23:57:55.621Z,100228.81
